Time;durP1;ratioP1;P1;durP2;ratioP2;P2;SDS_P1;SDS_P2;PMS_P1;PMS_P2;Temp;Humidity;BMP_temperature;BMP_pressure;BME280_temperature;BME280_humidity;BME280_pressure;Samples;Min_cycle;Max_cycle;Signal;HPM_P1;HPM_P2
2021/12/06 00:00:43;;;;;;;31.03;20.00;;;;;;;;;;5076168;28;20258;-70
2021/12/06 00:03:10;;;;;;;33.20;19.93;;;;;;;;;;5072893;28;20750;-71
2021/12/06 00:05:36;;;;;;;29.70;19.77;;;;;;;;;;5069007;28;20208;-70
2021/12/06 00:08:02;;;;;;;30.47;20.23;;;;;;;;;;5067438;28;20573;-71
2021/12/06 00:10:27;;;;;;;31.70;20.13;;;;;;;;;;5049981;28;20267;-70
2021/12/06 00:12:52;;;;;;;33.47;20.00;;;;;;;;;;5068227;28;20264;-71
2021/12/06 00:15:18;;;;;;;31.87;19.80;;;;;;;;;;5069381;28;20207;-71
2021/12/06 00:17:43;;;;;;;33.93;19.70;;;;;;;;;;5069757;28;20177;-70
2021/12/06 00:20:09;;;;;;;31.00;20.73;;;;;;;;;;5067120;28;20192;-71
2021/12/06 00:22:35;;;;;;;32.33;19.87;;;;;;;;;;5065406;28;20775;-71
2021/12/06 00:25:01;;;;;;;31.73;19.83;;;;;;;;;;5041881;28;20311;-71
2021/12/06 00:27:26;;;;;;;32.90;21.40;;;;;;;;;;5064929;28;20195;-71
2021/12/06 00:29:52;;;;;;;32.97;20.90;;;;;;;;;;5070892;28;20191;-71
2021/12/06 00:32:17;;;;;;;33.30;20.00;;;;;;;;;;5052422;28;20172;-71
2021/12/06 00:34:43;;;;;;;30.63;19.53;;;;;;;;;;5070178;28;20216;-71
2021/12/06 00:37:29;;;;;;;28.73;18.37;;;;;;;;;;5075348;28;20176;-70
2021/12/06 00:39:56;;;;;;;30.83;20.30;;;;;;;;;;5066192;28;20841;-71
2021/12/06 00:42:23;;;;;;;30.03;19.37;;;;;;;;;;5072954;28;20654;-71
2021/12/06 00:44:49;;;;;;;37.63;22.70;;;;;;;;;;5068320;28;20291;-73
2021/12/06 00:47:14;;;;;;;35.23;21.13;;;;;;;;;;5072703;28;20619;-71
2021/12/06 00:49:39;;;;;;;38.27;23.40;;;;;;;;;;5069237;28;20199;-70
2021/12/06 00:52:05;;;;;;;38.40;22.93;;;;;;;;;;5068354;28;20177;-70
2021/12/06 00:54:34;;;;;;;34.63;21.33;;;;;;;;;;5067699;28;20177;-69
2021/12/06 00:56:59;;;;;;;40.23;21.70;;;;;;;;;;5069330;28;20229;-72
2021/12/06 00:59:24;;;;;;;37.13;21.67;;;;;;;;;;5072375;28;20177;-71
2021/12/06 01:01:51;;;;;;;36.50;21.97;;;;;;;;;;5068477;28;20177;-70
2021/12/06 01:04:16;;;;;;;37.23;22.37;;;;;;;;;;5050893;28;20196;-70
2021/12/06 01:06:41;;;;;;;37.67;22.83;;;;;;;;;;5068870;28;20622;-71
2021/12/06 01:09:06;;;;;;;39.63;22.07;;;;;;;;;;5074535;28;20177;-70
2021/12/06 01:11:32;;;;;;;35.60;22.27;;;;;;;;;;5068325;28;20235;-72
2021/12/06 01:13:57;;;;;;;33.50;21.43;;;;;;;;;;5068401;28;20275;-71
2021/12/06 01:16:22;;;;;;;33.97;22.07;;;;;;;;;;5068475;28;20205;-70
2021/12/06 01:18:47;;;;;;;36.43;22.77;;;;;;;;;;5067413;28;20246;-71
2021/12/06 01:21:23;;;;;;;32.03;20.10;;;;;;;;;;5068519;28;20185;-71
2021/12/06 01:23:54;;;;;;;31.10;20.63;;;;;;;;;;5073620;28;20234;-71
2021/12/06 01:29:42;;;;;;;36.03;21.50;;;;;;;;;;5058716;28;20183;-71
2021/12/06 01:31:57;;;;;;;31.67;20.73;;;;;;;;;;5057639;28;20280;-71
2021/12/06 01:39:38;;;;;;;38.30;21.50;;;;;;;;;;5067231;28;20183;-71
2021/12/06 01:42:04;;;;;;;41.17;21.90;;;;;;;;;;5067152;28;20177;-70
2021/12/06 01:44:34;;;;;;;45.53;23.10;;;;;;;;;;5068425;28;20618;-71
2021/12/06 01:47:02;;;;;;;39.93;22.07;;;;;;;;;;5066503;28;20260;-71
2021/12/06 01:49:29;;;;;;;42.57;26.00;;;;;;;;;;5068084;28;20183;-71
2021/12/06 01:51:57;;;;;;;35.87;21.03;;;;;;;;;;5073057;28;20207;-71
2021/12/06 01:54:22;;;;;;;43.10;24.10;;;;;;;;;;5071496;28;20747;-71
2021/12/06 01:56:48;;;;;;;46.57;24.40;;;;;;;;;;5066183;28;20181;-71
2021/12/06 01:59:14;;;;;;;40.73;24.60;;;;;;;;;;5068793;28;20196;-70
2021/12/06 02:01:40;;;;;;;48.57;25.70;;;;;;;;;;5072338;28;20185;-72
2021/12/06 02:04:06;;;;;;;40.27;22.43;;;;;;;;;;5068689;28;20522;-72
2021/12/06 02:06:31;;;;;;;37.70;22.97;;;;;;;;;;5067430;28;20286;-72
2021/12/06 02:08:56;;;;;;;41.60;23.93;;;;;;;;;;5071764;28;20199;-71
2021/12/06 02:11:25;;;;;;;45.33;24.63;;;;;;;;;;5073676;28;20176;-70
2021/12/06 02:14:07;;;;;;;42.00;24.23;;;;;;;;;;5059131;28;20187;-73
2021/12/06 02:16:56;;;;;;;49.40;24.67;;;;;;;;;;5051107;28;20200;-70
2021/12/06 02:19:29;;;;;;;38.93;23.17;;;;;;;;;;5070771;28;20177;-72
2021/12/06 02:21:54;;;;;;;37.90;22.70;;;;;;;;;;5074335;28;20259;-71
2021/12/06 02:24:19;;;;;;;40.87;23.80;;;;;;;;;;5072544;28;20196;-69
2021/12/06 02:26:45;;;;;;;40.10;23.23;;;;;;;;;;5107440;22;20251;-68
2021/12/06 02:29:10;;;;;;;46.63;23.60;;;;;;;;;;5093812;28;20311;-69
2021/12/06 02:31:36;;;;;;;41.83;24.63;;;;;;;;;;5110600;27;20171;-69
2021/12/06 02:34:02;;;;;;;40.47;23.13;;;;;;;;;;5112815;28;20213;-69
2021/12/06 02:36:28;;;;;;;49.27;25.37;;;;;;;;;;5113576;27;20196;-69
2021/12/06 02:38:54;;;;;;;45.90;25.00;;;;;;;;;;5111759;28;20194;-69
2021/12/06 02:41:19;;;;;;;45.40;25.20;;;;;;;;;;5111138;28;20179;-69
2021/12/06 02:43:46;;;;;;;49.33;24.73;;;;;;;;;;5108140;28;20585;-68
2021/12/06 02:46:11;;;;;;;43.73;23.53;;;;;;;;;;5110519;28;20198;-67
2021/12/06 02:48:36;;;;;;;56.37;27.80;;;;;;;;;;5108932;28;20268;-69
2021/12/06 02:51:04;;;;;;;47.33;25.47;;;;;;;;;;5110218;28;20180;-68
2021/12/06 02:53:31;;;;;;;49.63;25.80;;;;;;;;;;5107545;28;20186;-68
2021/12/06 02:55:59;;;;;;;50.53;26.93;;;;;;;;;;5107200;28;20269;-68
2021/12/06 03:01:03;;;;;;;41.80;24.80;;;;;;;;;;5111989;28;20197;-69
2021/12/06 03:03:28;;;;;;;46.00;24.87;;;;;;;;;;5109105;28;20219;-67
2021/12/06 03:05:55;;;;;;;47.47;25.77;;;;;;;;;;5109304;28;20217;-67
2021/12/06 03:08:38;;;;;;;51.30;24.80;;;;;;;;;;5106537;28;20194;-67
2021/12/06 03:11:04;;;;;;;44.17;25.17;;;;;;;;;;5112536;28;20187;-69
2021/12/06 03:13:29;;;;;;;43.30;24.87;;;;;;;;;;5110946;28;20201;-67
2021/12/06 03:15:55;;;;;;;48.53;25.20;;;;;;;;;;5110574;28;20259;-69
2021/12/06 03:18:20;;;;;;;50.10;26.17;;;;;;;;;;5115769;27;20183;-67
2021/12/06 03:20:45;;;;;;;51.40;25.70;;;;;;;;;;5102485;28;20205;-68
2021/12/06 03:23:10;;;;;;;49.60;24.70;;;;;;;;;;5106833;28;20207;-68
2021/12/06 03:25:35;;;;;;;49.37;27.80;;;;;;;;;;5108114;28;20203;-70
2021/12/06 03:28:01;;;;;;;48.87;26.37;;;;;;;;;;5108701;28;20184;-69
2021/12/06 03:30:26;;;;;;;45.93;24.33;;;;;;;;;;5112473;28;20195;-68
2021/12/06 03:32:51;;;;;;;50.50;26.67;;;;;;;;;;5089609;27;20242;-68
2021/12/06 03:35:16;;;;;;;47.57;25.43;;;;;;;;;;5105651;28;20267;-68
2021/12/06 03:37:42;;;;;;;44.03;25.97;;;;;;;;;;5110982;28;20222;-68
2021/12/06 03:40:07;;;;;;;45.37;23.70;;;;;;;;;;5109262;28;20710;-68
2021/12/06 03:42:32;;;;;;;46.23;24.53;;;;;;;;;;5111698;28;20559;-68
2021/12/06 03:44:57;;;;;;;45.97;25.57;;;;;;;;;;5108901;28;20567;-68
2021/12/06 03:47:24;;;;;;;48.67;24.50;;;;;;;;;;5113449;28;20244;-68
2021/12/06 03:49:50;;;;;;;57.03;26.73;;;;;;;;;;5107611;28;20679;-69
2021/12/06 03:52:15;;;;;;;43.50;23.90;;;;;;;;;;5110706;28;20188;-69
2021/12/06 03:54:41;;;;;;;53.37;25.47;;;;;;;;;;5104940;28;20225;-70
2021/12/06 03:57:07;;;;;;;50.77;26.30;;;;;;;;;;5110303;28;20665;-69
2021/12/06 03:59:33;;;;;;;47.97;24.90;;;;;;;;;;5111132;28;20181;-69
2021/12/06 04:01:58;;;;;;;47.13;24.67;;;;;;;;;;5106435;28;20211;-69
2021/12/06 04:04:23;;;;;;;44.73;27.27;;;;;;;;;;5109172;28;20211;-69
2021/12/06 04:06:49;;;;;;;41.53;24.23;;;;;;;;;;5110271;28;20297;-67
2021/12/06 04:09:14;;;;;;;47.27;24.53;;;;;;;;;;5110935;28;20179;-69
2021/12/06 04:11:40;;;;;;;47.23;26.17;;;;;;;;;;5111245;28;20187;-67
2021/12/06 04:14:06;;;;;;;43.83;25.50;;;;;;;;;;5110669;28;20175;-68
2021/12/06 04:16:32;;;;;;;48.03;26.30;;;;;;;;;;5104693;28;20199;-69
2021/12/06 04:18:57;;;;;;;47.20;26.07;;;;;;;;;;5106953;28;20684;-69
2021/12/06 04:21:24;;;;;;;46.80;23.23;;;;;;;;;;5113001;28;20226;-69
2021/12/06 04:23:49;;;;;;;40.17;24.00;;;;;;;;;;5103431;28;20258;-69
2021/12/06 04:26:15;;;;;;;48.67;24.87;;;;;;;;;;5107893;28;20203;-68
2021/12/06 04:28:47;;;;;;;41.03;23.17;;;;;;;;;;5088215;28;20184;-68
2021/12/06 04:31:13;;;;;;;38.93;23.93;;;;;;;;;;5110153;28;20229;-68
2021/12/06 04:33:38;;;;;;;41.07;22.63;;;;;;;;;;5106473;28;20664;-69
2021/12/06 04:36:04;;;;;;;42.60;23.67;;;;;;;;;;5108293;28;20282;-68
2021/12/06 04:38:29;;;;;;;45.77;24.27;;;;;;;;;;5106617;28;20621;-67
2021/12/06 04:40:54;;;;;;;44.67;24.83;;;;;;;;;;5107492;28;20192;-69
2021/12/06 04:43:19;;;;;;;46.93;26.00;;;;;;;;;;5110470;28;20199;-69
2021/12/06 04:45:45;;;;;;;41.50;23.23;;;;;;;;;;5110510;28;20203;-69
2021/12/06 04:48:10;;;;;;;41.97;23.07;;;;;;;;;;5110139;28;20175;-68
2021/12/06 04:50:36;;;;;;;42.37;23.63;;;;;;;;;;5110018;28;20508;-68
2021/12/06 04:53:08;;;;;;;47.27;24.27;;;;;;;;;;5107509;28;20562;-69
2021/12/06 04:55:54;;;;;;;38.43;22.20;;;;;;;;;;5100667;28;20219;-70
2021/12/06 04:58:22;;;;;;;49.10;24.33;;;;;;;;;;5105723;28;20225;-69
2021/12/06 05:00:49;;;;;;;45.33;24.23;;;;;;;;;;5109484;28;20270;-68
2021/12/06 05:03:15;;;;;;;44.63;24.17;;;;;;;;;;5094563;28;20191;-69
2021/12/06 05:05:42;;;;;;;52.70;24.40;;;;;;;;;;5109457;28;20191;-70
2021/12/06 05:08:11;;;;;;;49.73;26.87;;;;;;;;;;5096509;28;20176;-69
2021/12/06 05:10:36;;;;;;;47.37;24.83;;;;;;;;;;5111110;28;20664;-69
2021/12/06 05:13:02;;;;;;;46.73;25.83;;;;;;;;;;5107241;28;20183;-69
2021/12/06 05:15:27;;;;;;;47.73;24.77;;;;;;;;;;5111173;28;20187;-68
2021/12/06 05:17:52;;;;;;;43.30;23.90;;;;;;;;;;5109415;28;20270;-68
2021/12/06 05:20:18;;;;;;;50.70;28.97;;;;;;;;;;5110201;28;20590;-67
2021/12/06 05:22:44;;;;;;;46.80;25.47;;;;;;;;;;5109625;28;20176;-69
2021/12/06 05:25:09;;;;;;;45.90;23.57;;;;;;;;;;5110382;28;20176;-69
2021/12/06 05:27:35;;;;;;;45.13;24.73;;;;;;;;;;5109155;28;20218;-69
2021/12/06 05:30:04;;;;;;;47.80;26.90;;;;;;;;;;5106826;28;20263;-69
2021/12/06 05:32:33;;;;;;;48.57;25.53;;;;;;;;;;5103374;28;20187;-68
2021/12/06 05:35:05;;;;;;;46.03;25.70;;;;;;;;;;5096696;28;20172;-69
2021/12/06 05:37:31;;;;;;;46.53;24.73;;;;;;;;;;5083952;28;20187;-69
2021/12/06 05:39:56;;;;;;;44.00;23.53;;;;;;;;;;5099803;27;20172;-69
2021/12/06 05:42:22;;;;;;;42.80;24.63;;;;;;;;;;5101591;27;20618;-71
2021/12/06 05:44:48;;;;;;;43.83;25.43;;;;;;;;;;5108212;28;20230;-68
2021/12/06 05:47:13;;;;;;;43.83;27.30;;;;;;;;;;5109694;28;20192;-69
2021/12/06 05:49:38;;;;;;;43.67;24.93;;;;;;;;;;5113409;28;20211;-69
2021/12/06 05:52:04;;;;;;;40.00;23.10;;;;;;;;;;5111386;28;20219;-68
2021/12/06 05:54:29;;;;;;;44.33;24.47;;;;;;;;;;5112967;28;20168;-68
2021/12/06 05:56:54;;;;;;;48.97;25.73;;;;;;;;;;5111480;28;20785;-68
2021/12/06 05:59:20;;;;;;;42.90;23.87;;;;;;;;;;5109286;28;20314;-68
2021/12/06 06:01:48;;;;;;;44.27;25.20;;;;;;;;;;5110050;28;20176;-68
2021/12/06 06:04:13;;;;;;;40.53;23.83;;;;;;;;;;5108035;28;20298;-68
2021/12/06 06:06:38;;;;;;;43.80;24.63;;;;;;;;;;5108727;28;20287;-69
2021/12/06 06:09:07;;;;;;;42.80;23.37;;;;;;;;;;5112484;28;20258;-69
2021/12/06 06:11:34;;;;;;;44.57;25.53;;;;;;;;;;5106315;28;20207;-69
2021/12/06 06:13:59;;;;;;;44.97;25.50;;;;;;;;;;5111916;28;20183;-69
2021/12/06 06:16:30;;;;;;;42.47;23.93;;;;;;;;;;5113797;28;20217;-69
2021/12/06 06:18:55;;;;;;;41.07;23.50;;;;;;;;;;5112136;28;20541;-68
2021/12/06 06:21:21;;;;;;;42.63;25.90;;;;;;;;;;5112610;28;20220;-69
2021/12/06 06:23:46;;;;;;;45.73;26.37;;;;;;;;;;5107224;28;20241;-68
2021/12/06 06:26:11;;;;;;;40.40;23.93;;;;;;;;;;5109890;28;20751;-68
2021/12/06 06:28:36;;;;;;;42.03;24.60;;;;;;;;;;5108722;28;20202;-68
2021/12/06 06:31:02;;;;;;;47.43;25.33;;;;;;;;;;5113608;28;20176;-68
2021/12/06 06:33:27;;;;;;;41.70;24.80;;;;;;;;;;5113697;28;20273;-68
2021/12/06 06:35:52;;;;;;;41.37;24.00;;;;;;;;;;5114801;28;20252;-69
2021/12/06 06:38:17;;;;;;;37.67;23.63;;;;;;;;;;5109729;28;20179;-68
2021/12/06 06:40:43;;;;;;;41.53;25.10;;;;;;;;;;5110609;28;20564;-69
2021/12/06 06:43:08;;;;;;;40.23;23.93;;;;;;;;;;5107695;28;20252;-67
2021/12/06 06:45:33;;;;;;;42.73;24.60;;;;;;;;;;5106580;28;20195;-68
2021/12/06 06:47:59;;;;;;;36.37;22.70;;;;;;;;;;5110185;28;20884;-71
2021/12/06 06:50:24;;;;;;;52.30;26.13;;;;;;;;;;5110930;28;20184;-66
2021/12/06 06:52:50;;;;;;;39.67;23.97;;;;;;;;;;5107531;28;20176;-68
2021/12/06 06:55:16;;;;;;;48.17;26.27;;;;;;;;;;5109282;28;20285;-68
2021/12/06 06:57:43;;;;;;;41.50;25.40;;;;;;;;;;5103595;28;20184;-68
2021/12/06 07:00:09;;;;;;;44.30;25.30;;;;;;;;;;5113401;28;20175;-68
2021/12/06 07:02:35;;;;;;;40.47;24.20;;;;;;;;;;5108758;28;20188;-68
2021/12/06 07:05:00;;;;;;;45.33;24.60;;;;;;;;;;5109983;28;20202;-69
2021/12/06 07:07:25;;;;;;;41.50;26.27;;;;;;;;;;5108373;28;20199;-67
2021/12/06 07:09:50;;;;;;;43.47;25.90;;;;;;;;;;5107610;28;20280;-67
2021/12/06 07:12:17;;;;;;;42.97;26.03;;;;;;;;;;5107885;28;20164;-68
2021/12/06 07:14:44;;;;;;;45.37;26.23;;;;;;;;;;5109440;28;20668;-69
2021/12/06 07:17:09;;;;;;;39.13;24.70;;;;;;;;;;5112627;28;20207;-68
2021/12/06 07:19:35;;;;;;;49.10;28.33;;;;;;;;;;5113457;28;20187;-69
2021/12/06 07:22:00;;;;;;;44.87;26.90;;;;;;;;;;5108449;28;20188;-67
2021/12/06 07:24:26;;;;;;;44.87;26.93;;;;;;;;;;5107503;28;20268;-70
2021/12/06 07:26:51;;;;;;;49.47;25.93;;;;;;;;;;5113351;28;20218;-68
2021/12/06 07:29:16;;;;;;;45.77;27.60;;;;;;;;;;5096276;28;20221;-68
2021/12/06 07:31:41;;;;;;;44.70;26.20;;;;;;;;;;5107963;28;20287;-67
2021/12/06 07:34:07;;;;;;;51.47;26.53;;;;;;;;;;5105435;28;20168;-67
2021/12/06 07:36:32;;;;;;;53.03;30.53;;;;;;;;;;5110684;28;20588;-68
2021/12/06 07:38:57;;;;;;;56.07;33.00;;;;;;;;;;5110966;28;20672;-67
2021/12/06 07:41:23;;;;;;;51.97;30.93;;;;;;;;;;5108271;28;20176;-68
2021/12/06 07:43:49;;;;;;;74.43;36.20;;;;;;;;;;5103309;27;20210;-68
2021/12/06 07:46:15;;;;;;;65.03;34.43;;;;;;;;;;5113702;28;20223;-67
2021/12/06 07:48:41;;;;;;;66.83;35.70;;;;;;;;;;5108030;28;20245;-68
2021/12/06 07:51:07;;;;;;;69.07;37.40;;;;;;;;;;5109232;28;20186;-66
2021/12/06 07:53:33;;;;;;;64.33;34.43;;;;;;;;;;5107713;27;20182;-69
2021/12/06 07:55:58;;;;;;;62.77;33.57;;;;;;;;;;5113394;27;20268;-67
2021/12/06 07:58:24;;;;;;;57.53;32.73;;;;;;;;;;5111384;28;20649;-68
2021/12/06 08:00:50;;;;;;;57.30;31.13;;;;;;;;;;5107077;28;20638;-67
2021/12/06 08:03:16;;;;;;;50.73;29.57;;;;;;;;;;5108804;27;20199;-68
2021/12/06 08:05:43;;;;;;;50.70;27.23;;;;;;;;;;5101495;28;20545;-69
2021/12/06 08:08:11;;;;;;;54.13;28.93;;;;;;;;;;5105090;28;20260;-69
2021/12/06 08:10:37;;;;;;;47.07;28.90;;;;;;;;;;5104914;28;20259;-68
2021/12/06 08:13:04;;;;;;;48.07;26.90;;;;;;;;;;5109611;27;20661;-69
2021/12/06 08:15:29;;;;;;;49.33;27.13;;;;;;;;;;5106125;28;20251;-69
2021/12/06 08:17:54;;;;;;;55.13;30.50;;;;;;;;;;5103874;28;20209;-68
2021/12/06 08:20:19;;;;;;;49.90;28.70;;;;;;;;;;5112966;28;20210;-69
2021/12/06 08:22:45;;;;;;;48.67;28.30;;;;;;;;;;5105119;28;20171;-68
2021/12/06 08:25:14;;;;;;;49.70;27.93;;;;;;;;;;5103941;28;20559;-69
2021/12/06 08:27:39;;;;;;;47.27;28.87;;;;;;;;;;5105394;22;20232;-72
2021/12/06 08:30:05;;;;;;;46.40;28.57;;;;;;;;;;5090671;28;20237;-75
2021/12/06 08:32:30;;;;;;;51.17;30.73;;;;;;;;;;5089074;28;20682;-74
2021/12/06 08:34:56;;;;;;;59.17;30.87;;;;;;;;;;5088219;28;20660;-74
2021/12/06 08:37:21;;;;;;;51.60;30.07;;;;;;;;;;5070432;28;20200;-71
2021/12/06 08:39:46;;;;;;;52.20;29.67;;;;;;;;;;5088790;28;20188;-72
2021/12/06 08:42:11;;;;;;;48.77;28.90;;;;;;;;;;5089597;28;20300;-71
2021/12/06 08:44:36;;;;;;;50.43;28.87;;;;;;;;;;5083085;28;20204;-74
2021/12/06 08:47:02;;;;;;;51.57;30.40;;;;;;;;;;5086651;28;20204;-74
2021/12/06 08:49:28;;;;;;;52.00;30.10;;;;;;;;;;5089407;28;20172;-72
2021/12/06 08:51:55;;;;;;;54.37;32.13;;;;;;;;;;5085278;28;20172;-75
2021/12/06 08:54:22;;;;;;;48.13;28.67;;;;;;;;;;5072077;28;20184;-72
2021/12/06 08:56:48;;;;;;;48.73;29.53;;;;;;;;;;5090402;28;20196;-72
2021/12/06 08:59:13;;;;;;;55.80;31.93;;;;;;;;;;5089493;28;20164;-71
2021/12/06 09:01:40;;;;;;;55.80;32.60;;;;;;;;;;5093171;28;20164;-74
2021/12/06 09:04:09;;;;;;;52.27;29.53;;;;;;;;;;5089997;28;20196;-75
2021/12/06 09:06:34;;;;;;;55.43;31.30;;;;;;;;;;5085941;28;20218;-74
2021/12/06 09:09:00;;;;;;;60.20;33.33;;;;;;;;;;5088070;28;20633;-73
2021/12/06 09:11:25;;;;;;;60.43;34.27;;;;;;;;;;5071297;28;20650;-72
2021/12/06 09:13:51;;;;;;;70.77;36.07;;;;;;;;;;5085528;28;20191;-72
2021/12/06 09:16:16;;;;;;;76.97;38.47;;;;;;;;;;5070338;28;20188;-72
2021/12/06 09:18:42;;;;;;;74.63;38.43;;;;;;;;;;5096985;28;20673;-73
2021/12/06 09:21:10;;;;;;;72.93;35.40;;;;;;;;;;5073424;28;20218;-72
2021/12/06 09:23:36;;;;;;;76.07;37.57;;;;;;;;;;5090330;28;20286;-72
2021/12/06 09:26:01;;;;;;;74.17;36.23;;;;;;;;;;5093980;28;20280;-72
2021/12/06 09:28:28;;;;;;;83.47;40.67;;;;;;;;;;5085381;28;20184;-72
2021/12/06 09:30:53;;;;;;;81.10;40.23;;;;;;;;;;5092350;28;20669;-73
2021/12/06 09:33:19;;;;;;;84.83;40.43;;;;;;;;;;5084727;28;20208;-72
2021/12/06 09:35:45;;;;;;;78.70;38.77;;;;;;;;;;5090341;28;20208;-72
2021/12/06 09:38:11;;;;;;;81.83;41.60;;;;;;;;;;5094177;28;20228;-73
2021/12/06 09:40:39;;;;;;;85.30;39.20;;;;;;;;;;5088865;28;20588;-72
2021/12/06 09:43:06;;;;;;;77.03;40.67;;;;;;;;;;5085364;28;20212;-72
2021/12/06 09:45:32;;;;;;;76.03;40.03;;;;;;;;;;5093791;28;20184;-72
2021/12/06 09:47:59;;;;;;;83.13;41.43;;;;;;;;;;5095265;28;20336;-72
2021/12/06 09:50:27;;;;;;;87.77;41.30;;;;;;;;;;5092486;28;20261;-73
2021/12/06 09:52:54;;;;;;;77.73;38.33;;;;;;;;;;5073067;28;20176;-73
2021/12/06 09:55:20;;;;;;;82.40;38.97;;;;;;;;;;5090762;28;20314;-72
2021/12/06 09:57:45;;;;;;;80.27;37.37;;;;;;;;;;5090093;28;20672;-72
2021/12/06 10:00:12;;;;;;;69.33;35.63;;;;;;;;;;5090947;28;20183;-72
2021/12/06 10:02:37;;;;;;;71.80;36.90;;;;;;;;;;5107181;28;20187;-73
2021/12/06 10:05:04;;;;;;;78.13;36.40;;;;;;;;;;5095538;28;20208;-74
2021/12/06 10:07:29;;;;;;;73.17;35.70;;;;;;;;;;5096468;28;20200;-73
2021/12/06 10:09:55;;;;;;;68.63;35.47;;;;;;;;;;5094106;28;20444;-72
2021/12/06 10:12:21;;;;;;;73.43;36.37;;;;;;;;;;5093542;28;20625;-75
2021/12/06 10:14:47;;;;;;;67.07;34.23;;;;;;;;;;5089875;28;20650;-72
2021/12/06 10:17:15;;;;;;;71.10;34.60;;;;;;;;;;5092693;28;20239;-74
2021/12/06 10:19:41;;;;;;;71.00;35.37;;;;;;;;;;5093617;28;20184;-72
2021/12/06 10:22:06;;;;;;;77.07;36.77;;;;;;;;;;5068559;28;20195;-72
2021/12/06 10:24:31;;;;;;;70.77;34.50;;;;;;;;;;5082549;28;20253;-72
2021/12/06 10:27:07;;;;;;;71.50;35.30;;;;;;;;;;5092466;28;20216;-73
2021/12/06 10:29:38;;;;;;;63.50;32.73;;;;;;;;;;5090358;28;20182;-72
2021/12/06 10:32:09;;;;;;;56.33;30.50;;;;;;;;;;5090280;28;20180;-72
2021/12/06 10:34:34;;;;;;;57.40;32.37;;;;;;;;;;5091328;28;20218;-74
2021/12/06 10:37:00;;;;;;;53.07;27.63;;;;;;;;;;5093271;28;20232;-72
2021/12/06 10:39:25;;;;;;;51.90;27.90;;;;;;;;;;5093056;28;20709;-73
2021/12/06 10:41:51;;;;;;;56.37;29.17;;;;;;;;;;5093546;28;20187;-72
2021/12/06 10:44:17;;;;;;;48.80;27.53;;;;;;;;;;5092612;28;20208;-73
2021/12/06 10:46:46;;;;;;;44.03;25.33;;;;;;;;;;5090281;28;20253;-72
2021/12/06 10:49:13;;;;;;;43.73;25.23;;;;;;;;;;5091518;28;20294;-73
2021/12/06 10:51:38;;;;;;;47.47;25.93;;;;;;;;;;5088687;28;20331;-72
2021/12/06 10:54:13;;;;;;;39.03;22.40;;;;;;;;;;5091382;28;20680;-72
2021/12/06 10:56:45;;;;;;;43.27;25.03;;;;;;;;;;5070989;28;20262;-72
2021/12/06 10:59:16;;;;;;;41.03;24.87;;;;;;;;;;5073661;28;20172;-72
2021/12/06 11:01:42;;;;;;;37.30;22.03;;;;;;;;;;5103360;28;20194;-73
2021/12/06 11:04:09;;;;;;;39.70;24.00;;;;;;;;;;5091565;28;20204;-74
2021/12/06 11:06:41;;;;;;;36.87;21.93;;;;;;;;;;5085011;28;20207;-73
2021/12/06 11:09:06;;;;;;;40.40;23.23;;;;;;;;;;5083120;28;20176;-75
2021/12/06 11:11:34;;;;;;;38.47;23.80;;;;;;;;;;5103335;28;20164;-72
2021/12/06 11:14:01;;;;;;;39.57;23.23;;;;;;;;;;5098594;28;20272;-72
2021/12/06 11:16:28;;;;;;;42.90;24.23;;;;;;;;;;5099407;28;20245;-72
2021/12/06 11:18:54;;;;;;;42.27;24.03;;;;;;;;;;5091370;28;20637;-72
2021/12/06 11:21:33;;;;;;;39.30;22.67;;;;;;;;;;5084838;28;20176;-73
2021/12/06 11:24:10;;;;;;;38.20;22.37;;;;;;;;;;5091104;28;20199;-74
2021/12/06 11:26:37;;;;;;;36.40;21.63;;;;;;;;;;5087408;28;20216;-73
2021/12/06 11:29:08;;;;;;;39.33;22.70;;;;;;;;;;5073904;28;20173;-72
2021/12/06 11:31:34;;;;;;;38.33;21.73;;;;;;;;;;5069621;28;20195;-73
2021/12/06 11:34:01;;;;;;;40.93;22.60;;;;;;;;;;5091184;28;20605;-72
2021/12/06 11:36:27;;;;;;;40.13;22.50;;;;;;;;;;5091026;28;20209;-73
2021/12/06 11:39:01;;;;;;;41.37;23.53;;;;;;;;;;5091917;28;20229;-73
2021/12/06 11:41:27;;;;;;;37.67;22.30;;;;;;;;;;5091836;28;20215;-73
2021/12/06 11:43:52;;;;;;;46.50;25.40;;;;;;;;;;5073359;28;20709;-73
2021/12/06 11:46:31;;;;;;;47.33;25.40;;;;;;;;;;5090494;28;20193;-73
2021/12/06 11:48:56;;;;;;;49.07;25.80;;;;;;;;;;5086451;28;20177;-73
2021/12/06 11:51:23;;;;;;;45.37;24.90;;;;;;;;;;5090548;28;20185;-72
2021/12/06 11:53:52;;;;;;;43.53;24.67;;;;;;;;;;5091484;28;20176;-72
2021/12/06 11:56:26;;;;;;;51.47;27.60;;;;;;;;;;5089813;28;20200;-72
2021/12/06 11:58:55;;;;;;;46.47;25.20;;;;;;;;;;5091758;28;20195;-74
2021/12/06 12:01:31;;;;;;;42.73;23.27;;;;;;;;;;5091764;28;20203;-72
2021/12/06 12:04:23;;;;;;;43.87;26.67;;;;;;;;;;5090003;28;20195;-72
2021/12/06 12:07:01;;;;;;;44.80;24.40;;;;;;;;;;5082694;28;20204;-72
2021/12/06 12:09:33;;;;;;;39.70;23.90;;;;;;;;;;5097013;28;20682;-72
2021/12/06 12:12:01;;;;;;;44.60;24.43;;;;;;;;;;5095130;28;20183;-72
2021/12/06 12:14:27;;;;;;;42.23;23.20;;;;;;;;;;5095259;28;20199;-72
2021/12/06 12:16:52;;;;;;;38.63;22.87;;;;;;;;;;5098618;28;20230;-72
2021/12/06 12:19:18;;;;;;;34.13;16.70;;;;;;;;;;5091448;28;20184;-72
2021/12/06 12:21:43;;;;;;;35.17;19.17;;;;;;;;;;5103317;28;20175;-72
2021/12/06 12:24:08;;;;;;;31.77;19.70;;;;;;;;;;5089717;28;20207;-73
2021/12/06 12:26:34;;;;;;;33.10;18.77;;;;;;;;;;5083734;28;20631;-72
2021/12/06 12:29:11;;;;;;;29.87;18.20;;;;;;;;;;5091452;28;20168;-72
2021/12/06 12:31:37;;;;;;;31.07;17.40;;;;;;;;;;5087174;28;20183;-73
2021/12/06 12:34:02;;;;;;;29.30;15.40;;;;;;;;;;5085660;28;20168;-73
2021/12/06 12:36:27;;;;;;;31.43;16.70;;;;;;;;;;5080953;28;20743;-73
2021/12/06 12:38:56;;;;;;;37.20;17.57;;;;;;;;;;5087642;28;20184;-73
2021/12/06 12:41:22;;;;;;;28.97;15.90;;;;;;;;;;5090862;28;20615;-73
2021/12/06 12:43:49;;;;;;;30.03;17.63;;;;;;;;;;5083991;28;20205;-72
2021/12/06 12:46:17;;;;;;;25.53;15.70;;;;;;;;;;5082403;28;20211;-73
2021/12/06 12:48:51;;;;;;;26.33;14.50;;;;;;;;;;5089329;28;20173;-73
2021/12/06 12:51:17;;;;;;;21.33;13.07;;;;;;;;;;5087434;28;20510;-72
2021/12/06 12:53:54;;;;;;;25.77;14.53;;;;;;;;;;5089084;28;20212;-73
2021/12/06 12:56:21;;;;;;;25.40;14.00;;;;;;;;;;5067556;28;21022;-72
2021/12/06 12:58:48;;;;;;;23.33;14.20;;;;;;;;;;5082220;28;20414;-73
2021/12/06 13:01:13;;;;;;;24.23;14.20;;;;;;;;;;5092142;28;20176;-73
2021/12/06 13:03:39;;;;;;;24.33;14.63;;;;;;;;;;5086955;28;22202;-73
2021/12/06 13:06:23;;;;;;;27.57;15.53;;;;;;;;;;5087609;28;20250;-72
2021/12/06 13:08:50;;;;;;;25.73;14.33;;;;;;;;;;5084065;28;20169;-73
2021/12/06 13:11:15;;;;;;;26.80;15.23;;;;;;;;;;5087195;28;20620;-72
2021/12/06 13:13:47;;;;;;;23.93;15.63;;;;;;;;;;5085452;28;20204;-73
2021/12/06 13:19:05;;;;;;;20.60;12.80;;;;;;;;;;5088407;28;20186;-72
2021/12/06 13:21:40;;;;;;;19.43;10.90;;;;;;;;;;5086950;28;20175;-73
2021/12/06 13:24:11;;;;;;;18.77;11.27;;;;;;;;;;5084317;28;20195;-73
2021/12/06 13:26:38;;;;;;;19.93;11.43;;;;;;;;;;5079893;28;20306;-72
2021/12/06 13:29:04;;;;;;;19.10;11.37;;;;;;;;;;5069803;28;20169;-73
2021/12/06 13:31:30;;;;;;;20.17;12.10;;;;;;;;;;5086928;28;20573;-73
2021/12/06 13:33:56;;;;;;;21.83;11.87;;;;;;;;;;5087619;28;20177;-73
2021/12/06 13:36:40;;;;;;;21.10;12.17;;;;;;;;;;5079451;28;20193;-73
2021/12/06 13:39:25;;;;;;;21.00;12.07;;;;;;;;;;5068156;28;20237;-72
2021/12/06 13:41:51;;;;;;;24.53;13.93;;;;;;;;;;5081077;28;20737;-72
2021/12/06 13:44:21;;;;;;;22.23;14.00;;;;;;;;;;5069264;28;20226;-72
2021/12/06 13:46:50;;;;;;;27.10;15.20;;;;;;;;;;5084796;28;20566;-72
2021/12/06 13:49:20;;;;;;;24.93;14.90;;;;;;;;;;5087595;28;20176;-72
2021/12/06 13:51:46;;;;;;;24.43;14.33;;;;;;;;;;5083182;28;20653;-72
2021/12/06 13:54:13;;;;;;;23.00;13.88;;;;;;;;;;5085934;28;20246;-72
2021/12/06 13:56:41;;;;;;;23.17;15.07;;;;;;;;;;5084515;28;20203;-72
2021/12/06 13:59:07;;;;;;;21.07;14.40;;;;;;;;;;5091701;28;20301;-73
2021/12/06 14:01:35;;;;;;;28.13;16.27;;;;;;;;;;5092910;28;20168;-74
2021/12/06 14:04:04;;;;;;;22.93;14.37;;;;;;;;;;5087590;28;20215;-72
2021/12/06 14:06:39;;;;;;;23.13;13.73;;;;;;;;;;5078470;28;20250;-72
2021/12/06 14:09:05;;;;;;;32.60;19.27;;;;;;;;;;5086092;28;20207;-74
2021/12/06 14:11:30;;;;;;;29.90;18.50;;;;;;;;;;5062834;28;20250;-72
2021/12/06 14:13:57;;;;;;;29.40;17.90;;;;;;;;;;5086116;28;20326;-72
2021/12/06 14:16:22;;;;;;;30.57;17.53;;;;;;;;;;5081971;28;20204;-72
2021/12/06 14:18:50;;;;;;;29.07;17.67;;;;;;;;;;5073226;28;20715;-74
2021/12/06 14:21:17;;;;;;;30.47;18.40;;;;;;;;;;5087210;28;20625;-74
2021/12/06 14:23:43;;;;;;;30.73;18.53;;;;;;;;;;5093036;28;20477;-73
2021/12/06 14:26:08;;;;;;;36.97;19.83;;;;;;;;;;5093143;28;20192;-73
2021/12/06 14:28:43;;;;;;;32.10;19.93;;;;;;;;;;5092023;28;20207;-74